Terminal Aerodrome Forecast
Issued by NWS Topeka, KS

Home | Current Version | Previous Version | Text Only | Print | Product List | Glossary Off
Versions: 1 2 3 4 5 6 7 8 9 10 11 12 13 14 15 16

000
FTUS43 KTOP 041100
TAFTOP
TAF
KTOP 041122Z 0412/0512 01014G22KT P6SM SCT025 OVC060
     FM041500 01013KT P6SM SCT040 BKN090
     FM050000 01005KT P6SM BKN200=

USA.gov is the U.S. government's official web portal to all federal, state and local government web resources and services.